Time;durP1;ratioP1;P1;durP2;ratioP2;P2;SDS_P1;SDS_P2;PMS_P1;PMS_P2;Temp;Humidity;BMP_temperature;BMP_pressure;BME280_temperature;BME280_humidity;BME280_pressure;Samples;Min_cycle;Max_cycle;Signal;HPM_P1;HPM_P2
2024/04/10 00:00:14;;;;;;;3.10;1.00;;;8.20;1.00;;;;;;5277979;27;20227;-71
2024/04/10 00:02:40;;;;;;;2.17;0.83;;;8.10;1.00;;;;;;5277090;27;20254;-70
2024/04/10 00:05:07;;;;;;;2.03;1.10;;;8.10;1.00;;;;;;5277630;27;20491;-69
2024/04/10 00:07:34;;;;;;;1.83;0.97;;;8.00;1.00;;;;;;5277379;27;20455;-69
2024/04/10 00:09:59;;;;;;;2.13;0.80;;;8.00;1.00;;;;;;5276021;27;20492;-69
2024/04/10 00:12:25;;;;;;;3.20;1.20;;;8.00;1.00;;;;;;5275446;27;20849;-70
2024/04/10 00:14:50;;;;;;;2.77;1.53;;;8.00;1.00;;;;;;5275305;27;20607;-70
2024/04/10 00:17:16;;;;;;;2.60;1.20;;;8.00;1.00;;;;;;5277205;27;20236;-70
2024/04/10 00:19:41;;;;;;;4.90;2.00;;;7.90;1.00;;;;;;5277357;27;20740;-71
2024/04/10 00:22:07;;;;;;;1.90;1.07;;;7.90;1.00;;;;;;5277195;27;20216;-70
2024/04/10 00:24:32;;;;;;;2.53;1.33;;;7.90;1.00;;;;;;5277008;27;20581;-70
2024/04/10 00:26:58;;;;;;;3.50;1.17;;;7.90;1.00;;;;;;5277173;27;20726;-70
2024/04/10 00:29:23;;;;;;;2.03;1.10;;;7.80;1.00;;;;;;5276956;27;20224;-70
2024/04/10 00:31:52;;;;;;;1.90;0.90;;;7.80;1.00;;;;;;5277488;27;20227;-70
2024/04/10 00:34:18;;;;;;;3.93;1.20;;;7.80;1.00;;;;;;5275428;27;20843;-69
2024/04/10 00:36:44;;;;;;;1.90;1.20;;;7.70;1.00;;;;;;5279710;27;20576;-69
2024/04/10 00:39:10;;;;;;;4.27;1.00;;;7.70;1.00;;;;;;5279402;27;20231;-68
2024/04/10 00:41:35;;;;;;;1.93;1.10;;;7.60;1.10;;;;;;5275331;27;20459;-69
2024/04/10 00:44:01;;;;;;;6.50;1.03;;;7.60;1.00;;;;;;5276608;27;20454;-70
2024/04/10 00:46:27;;;;;;;4.53;1.47;;;7.50;1.90;;;;;;5277206;27;20476;-70
2024/04/10 00:48:53;;;;;;;1.80;0.80;;;7.50;1.70;;;;;;5276605;27;20615;-69
2024/04/10 00:51:25;;;;;;;3.00;1.10;;;7.40;2.10;;;;;;5277034;27;20443;-68
2024/04/10 00:53:51;;;;;;;2.97;1.20;;;7.40;1.60;;;;;;5277190;27;20547;-68
2024/04/10 00:56:17;;;;;;;2.60;1.10;;;7.30;2.10;;;;;;5278247;27;20466;-71
2024/04/10 00:58:43;;;;;;;3.27;1.17;;;7.30;2.10;;;;;;5277390;27;20890;-69
2024/04/10 01:01:10;;;;;;;2.10;1.00;;;7.20;2.00;;;;;;5277821;27;20501;-69
2024/04/10 01:03:38;;;;;;;1.80;0.70;;;7.20;3.30;;;;;;5278623;27;20266;-69
2024/04/10 01:06:05;;;;;;;4.20;1.10;;;7.10;3.90;;;;;;5278510;27;21007;-70
2024/04/10 01:08:32;;;;;;;2.63;1.10;;;7.10;4.10;;;;;;5277971;27;20514;-70
2024/04/10 01:11:03;;;;;;;2.27;1.07;;;7.10;4.10;;;;;;5277208;27;20550;-70
2024/04/10 01:13:30;;;;;;;3.33;1.57;;;7.10;4.10;;;;;;5277375;27;21058;-69
2024/04/10 01:15:55;;;;;;;3.40;0.97;;;7.10;4.10;;;;;;5275681;27;20505;-69
2024/04/10 01:18:21;;;;;;;2.50;1.10;;;7.00;5.70;;;;;;5277786;27;20576;-68
2024/04/10 01:20:48;;;;;;;2.67;1.40;;;7.00;6.30;;;;;;5277686;27;20231;-70
2024/04/10 01:23:21;;;;;;;3.13;1.60;;;6.90;6.10;;;;;;5277478;27;20573;-70
2024/04/10 01:25:47;;;;;;;6.43;1.53;;;6.80;6.10;;;;;;5275723;27;20631;-69
2024/04/10 01:28:12;;;;;;;5.00;1.20;;;6.90;6.10;;;;;;5275425;27;20896;-69
2024/04/10 01:30:38;;;;;;;4.60;1.20;;;6.80;6.80;;;;;;5277568;27;20272;-71
2024/04/10 01:33:04;;;;;;;3.30;1.13;;;6.90;6.60;;;;;;5277276;27;20227;-69
2024/04/10 01:35:29;;;;;;;2.53;1.30;;;6.90;5.50;;;;;;5276975;27;20231;-68
2024/04/10 01:37:55;;;;;;;2.00;1.10;;;6.90;5.20;;;;;;5277093;27;20452;-70
2024/04/10 01:40:22;;;;;;;4.10;1.50;;;6.90;4.30;;;;;;5275057;27;20250;-69
2024/04/10 01:42:48;;;;;;;4.83;1.20;;;7.00;4.00;;;;;;5276461;27;20285;-69
2024/04/10 01:45:14;;;;;;;2.33;1.03;;;7.00;4.00;;;;;;5277028;27;20748;-70
2024/04/10 01:47:39;;;;;;;4.30;1.40;;;7.10;4.10;;;;;;5276934;27;20618;-70
2024/04/10 01:50:06;;;;;;;2.37;0.87;;;7.10;2.80;;;;;;5277403;27;20445;-70
2024/04/10 01:52:32;;;;;;;2.47;1.20;;;7.20;2.10;;;;;;5274724;27;20564;-70
2024/04/10 01:54:57;;;;;;;4.03;1.57;;;7.20;1.50;;;;;;5274639;27;20462;-69
2024/04/10 01:57:23;;;;;;;4.10;1.50;;;7.20;1.00;;;;;;5275881;27;20582;-70
2024/04/10 01:59:49;;;;;;;9.07;1.63;;;7.20;1.00;;;;;;5274506;27;20228;-69
2024/04/10 02:02:14;;;;;;;5.03;1.43;;;7.20;1.00;;;;;;5275918;27;20267;-69
2024/04/10 02:04:40;;;;;;;2.00;0.93;;;7.20;1.00;;;;;;5275780;27;20490;-69
2024/04/10 02:07:06;;;;;;;5.83;1.23;;;7.20;1.00;;;;;;5276035;27;20609;-68
2024/04/10 02:09:31;;;;;;;2.47;1.00;;;7.20;1.00;;;;;;5275568;27;20310;-70
2024/04/10 02:11:59;;;;;;;6.00;1.07;;;7.20;1.00;;;;;;5275861;27;20236;-68
2024/04/10 02:14:25;;;;;;;3.87;1.20;;;7.30;1.00;;;;;;5275597;27;20731;-70
2024/04/10 02:16:51;;;;;;;2.97;2.03;;;7.30;1.00;;;;;;5273900;27;20466;-69
2024/04/10 02:19:16;;;;;;;5.23;0.97;;;7.30;1.00;;;;;;5273875;27;20247;-69
2024/04/10 02:21:42;;;;;;;5.73;1.57;;;7.30;1.00;;;;;;5273722;27;20243;-69
2024/04/10 02:24:07;;;;;;;2.57;1.20;;;7.30;1.00;;;;;;5275258;27;20238;-69
2024/04/10 02:26:33;;;;;;;5.13;1.70;;;7.30;1.00;;;;;;5273837;27;20278;-69
2024/04/10 02:28:59;;;;;;;3.70;1.50;;;7.30;1.00;;;;;;5262534;21;20626;-71
2024/04/10 02:31:24;;;;;;;2.07;1.03;;;7.20;1.00;;;;;;5243195;27;20616;-70
2024/04/10 02:33:50;;;;;;;3.03;1.07;;;7.20;1.00;;;;;;5213109;27;21100;-70
2024/04/10 02:36:16;;;;;;;4.97;1.77;;;7.10;1.00;;;;;;5243112;27;20664;-69
2024/04/10 02:38:42;;;;;;;5.37;1.50;;;7.10;1.00;;;;;;5242960;27;20254;-71
2024/04/10 02:41:07;;;;;;;3.60;1.40;;;7.00;1.10;;;;;;5243259;27;20228;-71
2024/04/10 02:43:33;;;;;;;3.17;1.20;;;6.90;2.00;;;;;;5242615;27;20456;-71
2024/04/10 02:46:00;;;;;;;3.63;1.33;;;6.90;2.20;;;;;;5213758;27;20229;-71
2024/04/10 02:48:26;;;;;;;5.60;1.63;;;6.90;2.30;;;;;;5243161;27;20235;-71
2024/04/10 02:50:53;;;;;;;6.13;1.47;;;6.80;3.50;;;;;;5242604;27;20541;-71
2024/04/10 02:53:18;;;;;;;1.83;0.70;;;6.80;3.50;;;;;;5242330;27;20472;-72
2024/04/10 02:55:49;;;;;;;2.80;0.90;;;6.70;3.80;;;;;;5242645;27;20578;-72
2024/04/10 02:58:16;;;;;;;5.80;0.90;;;6.70;3.40;;;;;;5242678;27;20703;-72
2024/04/10 03:00:50;;;;;;;4.37;1.33;;;6.70;4.40;;;;;;5242610;27;20463;-71
2024/04/10 03:03:16;;;;;;;3.87;1.30;;;6.70;4.10;;;;;;5212958;27;20473;-71
2024/04/10 03:05:44;;;;;;;2.80;1.33;;;6.70;4.30;;;;;;5213088;27;20506;-71
2024/04/10 03:08:12;;;;;;;2.40;1.00;;;6.70;4.70;;;;;;5213009;27;20349;-71
2024/04/10 03:10:38;;;;;;;2.33;1.10;;;6.70;4.60;;;;;;5242480;27;20572;-71
2024/04/10 03:13:05;;;;;;;3.67;1.20;;;6.70;4.40;;;;;;5212952;27;20565;-70
2024/04/10 03:15:33;;;;;;;3.30;1.20;;;6.70;3.90;;;;;;5242477;27;20977;-71
2024/04/10 03:17:59;;;;;;;3.93;1.40;;;6.70;4.60;;;;;;5242151;27;20468;-71
2024/04/10 03:20:25;;;;;;;3.80;1.30;;;6.70;4.80;;;;;;5242398;27;20569;-71
2024/04/10 03:22:53;;;;;;;2.20;1.10;;;6.70;4.90;;;;;;5242133;27;20236;-71
2024/04/10 03:25:19;;;;;;;1.80;1.03;;;6.70;4.60;;;;;;5242478;27;20348;-71
2024/04/10 03:27:44;;;;;;;4.30;1.27;;;6.70;5.00;;;;;;5241196;27;20478;-71
2024/04/10 03:30:10;;;;;;;8.10;1.20;;;6.60;4.40;;;;;;5242348;27;20228;-70
2024/04/10 03:32:38;;;;;;;2.57;1.20;;;6.50;5.70;;;;;;5241496;27;20308;-70
2024/04/10 03:35:06;;;;;;;3.80;1.50;;;6.40;5.70;;;;;;5241977;27;20455;-71
2024/04/10 03:37:32;;;;;;;2.35;1.02;;;6.40;5.50;;;;;;5242145;27;20476;-71
2024/04/10 03:39:57;;;;;;;4.13;1.80;;;6.30;7.40;;;;;;5242298;27;20294;-71
2024/04/10 03:42:23;;;;;;;8.80;1.80;;;6.20;8.00;;;;;;5241736;27;20223;-71
2024/04/10 03:44:50;;;;;;;2.30;1.40;;;6.30;8.00;;;;;;5241814;27;20232;-70
2024/04/10 03:47:15;;;;;;;8.87;1.50;;;6.20;8.10;;;;;;5241858;27;20254;-71
2024/04/10 03:49:41;;;;;;;3.70;2.07;;;6.20;8.00;;;;;;5212224;27;20570;-70
2024/04/10 03:52:07;;;;;;;2.97;1.40;;;6.10;8.60;;;;;;5242613;27;20223;-71
2024/04/10 03:54:32;;;;;;;2.20;1.00;;;6.10;9.30;;;;;;5212151;27;20689;-71
2024/04/10 03:56:58;;;;;;;6.03;1.50;;;6.00;9.50;;;;;;5212277;27;20250;-71
2024/04/10 03:59:23;;;;;;;2.67;1.40;;;5.90;10.10;;;;;;5241664;27;20223;-71
2024/04/10 04:01:49;;;;;;;7.13;1.80;;;5.90;12.00;;;;;;5212010;27;20236;-71
2024/04/10 04:04:14;;;;;;;2.57;1.20;;;5.90;12.20;;;;;;5211887;27;20266;-71
2024/04/10 04:06:41;;;;;;;2.27;1.03;;;5.80;12.90;;;;;;5241872;27;20613;-70
2024/04/10 04:09:09;;;;;;;5.70;1.10;;;5.90;13.00;;;;;;5212259;27;20588;-71
2024/04/10 04:11:36;;;;;;;4.20;1.40;;;5.90;12.90;;;;;;5241474;27;20848;-70
2024/04/10 04:14:03;;;;;;;4.22;1.30;;;6.00;13.00;;;;;;5211455;27;20479;-71
2024/04/10 04:16:31;;;;;;;2.42;1.00;;;6.00;12.80;;;;;;5241394;27;20242;-72
2024/04/10 04:18:57;;;;;;;3.03;1.20;;;6.00;13.40;;;;;;5241500;27;20243;-71
2024/04/10 04:21:23;;;;;;;4.20;1.83;;;6.00;12.50;;;;;;5212214;27;20330;-71
2024/04/10 04:23:49;;;;;;;4.00;0.93;;;6.00;12.90;;;;;;5211888;27;20233;-71
2024/04/10 04:26:14;;;;;;;2.95;1.35;;;6.00;13.20;;;;;;5252218;27;20446;-70
2024/04/10 04:28:40;;;;;;;3.30;1.60;;;6.00;13.40;;;;;;5244302;27;20236;-70
2024/04/10 04:31:06;;;;;;;3.10;1.73;;;6.00;13.10;;;;;;5211560;27;20689;-71
2024/04/10 04:33:32;;;;;;;3.80;1.40;;;6.00;13.10;;;;;;5241236;27;20515;-70
2024/04/10 04:35:57;;;;;;;4.93;1.60;;;6.00;14.50;;;;;;5241042;27;20285;-71
2024/04/10 04:38:23;;;;;;;2.50;1.30;;;5.90;14.30;;;;;;5241351;27;20243;-71
2024/04/10 04:40:48;;;;;;;4.00;1.33;;;5.90;15.00;;;;;;5244237;27;20231;-71
2024/04/10 04:43:14;;;;;;;3.60;1.53;;;5.90;15.20;;;;;;5214877;27;20261;-72
2024/04/10 04:45:40;;;;;;;2.47;1.00;;;5.90;14.60;;;;;;5244371;27;20278;-71
2024/04/10 04:48:07;;;;;;;2.72;1.30;;;5.90;15.10;;;;;;5244553;27;20310;-71
2024/04/10 04:50:33;;;;;;;3.22;1.20;;;5.90;15.60;;;;;;5244652;27;20277;-71
2024/04/10 04:52:59;;;;;;;6.38;1.50;;;6.00;15.30;;;;;;5244061;27;20234;-71
2024/04/10 04:55:26;;;;;;;4.53;1.53;;;6.00;14.40;;;;;;5215095;27;20237;-72
2024/04/10 04:57:51;;;;;;;4.15;1.05;;;6.10;14.70;;;;;;5244349;27;20303;-71
2024/04/10 05:00:20;;;;;;;2.87;1.53;;;6.10;14.80;;;;;;5244199;27;20300;-71
2024/04/10 05:02:46;;;;;;;3.53;1.67;;;6.20;14.20;;;;;;5214673;27;20276;-71
2024/04/10 05:05:18;;;;;;;2.97;1.77;;;6.40;13.60;;;;;;5244362;27;20638;-71
2024/04/10 05:07:45;;;;;;;4.00;1.00;;;6.40;12.50;;;;;;5244179;27;20485;-72
2024/04/10 05:10:12;;;;;;;4.70;1.90;;;6.50;12.20;;;;;;5244470;27;20497;-71
2024/04/10 05:12:40;;;;;;;2.80;1.50;;;6.60;11.80;;;;;;5243973;27;20452;-71
2024/04/10 05:15:07;;;;;;;6.35;1.65;;;6.70;9.80;;;;;;5244439;27;20461;-72
2024/04/10 05:17:33;;;;;;;2.47;1.10;;;6.70;9.80;;;;;;5244397;27;20278;-72
2024/04/10 05:19:58;;;;;;;4.87;1.63;;;6.70;8.40;;;;;;5244224;27;20460;-72
2024/04/10 05:22:24;;;;;;;2.77;1.43;;;6.80;9.30;;;;;;5244092;27;20224;-71
2024/04/10 05:24:50;;;;;;;4.17;1.70;;;7.00;7.50;;;;;;5244242;27;20278;-71
2024/04/10 05:27:25;;;;;;;4.17;2.57;;;7.10;6.60;;;;;;5244197;27;20260;-70
2024/04/10 05:30:06;;;;;;;5.93;2.30;;;7.10;6.20;;;;;;5244282;27;20224;-70
2024/04/10 05:32:32;;;;;;;4.63;2.60;;;7.30;6.70;;;;;;5244556;27;20497;-70
2024/04/10 05:34:57;;;;;;;4.30;1.97;;;7.40;5.30;;;;;;5246779;27;20452;-71
2024/04/10 05:37:23;;;;;;;6.90;2.27;;;7.60;4.40;;;;;;5217525;27;20657;-71
2024/04/10 05:39:49;;;;;;;6.60;3.27;;;7.80;2.90;;;;;;5245239;27;20704;-71
2024/04/10 05:42:16;;;;;;;13.03;6.03;;;8.00;1.80;;;;;;5244787;27;20540;-71
2024/04/10 05:44:42;;;;;;;8.97;4.80;;;8.10;3.40;;;;;;5243853;27;20924;-71
2024/04/10 05:47:07;;;;;;;9.23;4.13;;;8.20;1.00;;;;;;5244348;27;20505;-71
2024/04/10 05:49:33;;;;;;;5.40;3.10;;;8.20;1.70;;;;;;5214866;27;20889;-71
2024/04/10 05:51:58;;;;;;;4.83;2.20;;;8.30;3.30;;;;;;5214125;27;20473;-71
2024/04/10 05:54:24;;;;;;;4.67;2.63;;;8.50;2.70;;;;;;5214483;27;20261;-71
2024/04/10 05:56:51;;;;;;;3.70;1.90;;;8.20;1.00;;;;;;5243993;27;20217;-71
2024/04/10 05:59:16;;;;;;;7.50;2.40;;;8.20;1.00;;;;;;5244013;27;20259;-70
2024/04/10 06:01:42;;;;;;;3.90;1.67;;;8.30;1.00;;;;;;5243729;27;20545;-71
2024/04/10 06:04:07;;;;;;;3.03;1.40;;;8.30;1.00;;;;;;5243465;27;20248;-71
2024/04/10 06:06:34;;;;;;;4.33;1.60;;;8.30;1.00;;;;;;5243605;27;20365;-71
2024/04/10 06:08:59;;;;;;;4.83;1.50;;;8.30;1.00;;;;;;5243353;27;20670;-71
2024/04/10 06:11:29;;;;;;;3.70;1.90;;;8.40;1.00;;;;;;5214613;27;20512;-71
2024/04/10 06:13:57;;;;;;;4.23;2.40;;;8.50;1.00;;;;;;5243577;27;20229;-70
2024/04/10 06:16:23;;;;;;;6.27;1.73;;;8.60;1.00;;;;;;5243599;27;20453;-71
2024/04/10 06:18:49;;;;;;;4.67;1.20;;;8.40;1.00;;;;;;5243623;27;20472;-71
2024/04/10 06:21:15;;;;;;;4.30;1.80;;;8.40;1.00;;;;;;5243546;27;20456;-71
2024/04/10 06:23:42;;;;;;;2.70;1.13;;;8.50;1.00;;;;;;5243514;27;20503;-71
2024/04/10 06:26:08;;;;;;;4.87;1.57;;;8.60;1.00;;;;;;5243626;27;20225;-71
2024/04/10 06:28:34;;;;;;;5.70;1.77;;;8.60;1.00;;;;;;5214094;27;20531;-72
2024/04/10 06:31:01;;;;;;;2.93;1.30;;;8.70;1.00;;;;;;5213808;27;20507;-71
2024/04/10 06:33:27;;;;;;;3.93;1.83;;;8.80;1.00;;;;;;5243516;27;20576;-71
2024/04/10 06:35:53;;;;;;;6.73;2.30;;;8.80;1.00;;;;;;5213940;27;20511;-71
2024/04/10 06:38:18;;;;;;;4.17;1.37;;;9.00;1.00;;;;;;5243350;27;20472;-71
2024/04/10 06:40:55;;;;;;;3.23;1.97;;;9.10;1.00;;;;;;5243254;27;20224;-71
2024/04/10 06:43:21;;;;;;;3.17;1.70;;;9.20;1.00;;;;;;5242951;27;20229;-71
2024/04/10 06:46:03;;;;;;;2.90;1.97;;;9.30;1.00;;;;;;5244063;27;20509;-72
2024/04/10 06:48:30;;;;;;;3.80;2.17;;;9.40;1.00;;;;;;5247380;27;20285;-72
2024/04/10 06:51:00;;;;;;;5.40;1.80;;;9.40;1.00;;;;;;5247735;27;20473;-71
2024/04/10 06:53:26;;;;;;;5.80;1.40;;;9.50;1.00;;;;;;5244899;27;21100;-71
2024/04/10 06:55:54;;;;;;;4.73;1.50;;;9.50;1.00;;;;;;5245464;27;20469;-71
2024/04/10 06:58:19;;;;;;;5.67;1.70;;;9.50;1.00;;;;;;5245883;27;20301;-71
2024/04/10 07:01:02;;;;;;;6.90;1.67;;;9.40;1.00;;;;;;5243063;27;20947;-70
2024/04/10 07:03:28;;;;;;;4.10;1.80;;;9.40;1.00;;;;;;5212050;27;20329;-71
2024/04/10 07:06:11;;;;;;;3.90;1.50;;;9.40;1.00;;;;;;5243239;27;21001;-70
2024/04/10 07:08:42;;;;;;;7.77;2.03;;;9.50;1.00;;;;;;5213909;27;20476;-71
2024/04/10 07:11:11;;;;;;;7.07;2.30;;;9.60;1.00;;;;;;5243154;27;20507;-71
2024/04/10 07:13:37;;;;;;;6.53;1.90;;;9.80;1.00;;;;;;5213375;27;20511;-71
2024/04/10 07:16:04;;;;;;;5.47;2.30;;;9.90;1.00;;;;;;5243390;27;20497;-71
2024/04/10 07:18:30;;;;;;;6.93;1.67;;;9.80;1.00;;;;;;5243008;27;20533;-71
2024/04/10 07:21:10;;;;;;;8.40;1.40;;;9.90;1.00;;;;;;5242965;27;21068;-70
2024/04/10 07:25:03;;;;;;;7.50;2.30;;;10.00;1.00;;;;;;5567057;25;20594;-70
2024/04/10 07:27:29;;;;;;;4.10;1.93;;;10.00;1.00;;;;;;5504915;26;20588;-70
2024/04/10 07:29:56;;;;;;;7.60;1.87;;;10.10;1.00;;;;;;5506529;25;20450;-71
2024/04/10 07:32:22;;;;;;;3.03;1.90;;;10.40;1.00;;;;;;5506578;25;20732;-70
2024/04/10 07:34:47;;;;;;;5.53;1.77;;;10.30;1.00;;;;;;5506175;25;20447;-70
2024/04/10 07:37:13;;;;;;;5.90;3.80;;;10.30;1.00;;;;;;5506652;25;20780;-70
2024/04/10 07:39:38;;;;;;;4.90;2.30;;;10.40;1.00;;;;;;5506723;25;20817;-71
2024/04/10 07:42:05;;;;;;;5.57;1.40;;;10.70;1.00;;;;;;5506540;25;20251;-71
2024/04/10 07:44:31;;;;;;;6.93;2.03;;;10.80;1.00;;;;;;5504537;26;20719;-71
2024/04/10 07:46:56;;;;;;;5.67;1.50;;;11.10;1.00;;;;;;5504508;26;20946;-70
2024/04/10 07:49:22;;;;;;;8.80;2.43;;;11.10;1.00;;;;;;5506933;25;20216;-70
2024/04/10 07:51:47;;;;;;;8.27;2.30;;;10.90;1.00;;;;;;5504675;25;20676;-71
2024/04/10 07:54:13;;;;;;;9.73;2.80;;;11.00;1.00;;;;;;5506357;25;20771;-70
2024/04/10 07:56:38;;;;;;;6.67;2.40;;;11.20;1.00;;;;;;5506431;25;20769;-70
2024/04/10 07:59:04;;;;;;;4.07;2.07;;;11.40;1.00;;;;;;5504744;25;20234;-70
2024/04/10 08:01:29;;;;;;;3.67;1.80;;;11.50;1.00;;;;;;5504515;26;20219;-70
2024/04/10 08:03:55;;;;;;;2.63;1.43;;;11.60;1.00;;;;;;5505867;25;20219;-70
2024/04/10 08:06:20;;;;;;;5.77;3.40;;;12.00;1.00;;;;;;5506431;25;20215;-70
2024/04/10 08:08:46;;;;;;;3.57;2.23;;;12.40;1.00;;;;;;5504319;25;20247;-70
2024/04/10 08:11:13;;;;;;;6.47;1.97;;;12.50;1.00;;;;;;5506324;25;20217;-70
2024/04/10 08:13:42;;;;;;;5.43;2.03;;;12.70;1.00;;;;;;5505791;25;20221;-70
2024/04/10 08:16:11;;;;;;;7.03;2.60;;;12.70;1.00;;;;;;5504349;26;20599;-70
2024/04/10 08:18:38;;;;;;;4.00;2.30;;;12.40;1.00;;;;;;5505728;25;20465;-71
2024/04/10 08:21:06;;;;;;;6.40;2.17;;;12.60;1.00;;;;;;5506035;25;20451;-70
2024/04/10 08:23:36;;;;;;;10.93;3.40;;;12.60;1.00;;;;;;5505498;25;20537;-70
2024/04/10 08:26:15;;;;;;;6.17;1.70;;;12.30;1.00;;;;;;5504520;25;20458;-70
2024/04/10 08:28:45;;;;;;;3.97;2.20;;;12.60;1.00;;;;;;5506252;25;20571;-71
2024/04/10 08:31:12;;;;;;;6.43;2.57;;;12.90;1.00;;;;;;5506235;25;20555;-70
2024/04/10 08:33:38;;;;;;;3.33;1.60;;;13.00;1.00;;;;;;5503575;26;20534;-71
2024/04/10 08:36:06;;;;;;;4.43;2.10;;;13.00;1.00;;;;;;5491233;25;20462;-70
2024/04/10 08:38:32;;;;;;;3.33;1.80;;;13.20;1.00;;;;;;5489967;26;20494;-70
2024/04/10 08:40:58;;;;;;;7.33;3.17;;;13.80;1.00;;;;;;5490347;26;20586;-71
2024/04/10 08:43:25;;;;;;;4.43;2.60;;;14.60;1.00;;;;;;5489591;26;20388;-71
2024/04/10 08:45:51;;;;;;;9.43;4.33;;;14.60;1.00;;;;;;5490011;26;20448;-71
2024/04/10 08:48:18;;;;;;;5.83;2.10;;;14.40;1.00;;;;;;5489832;26;20564;-71
2024/04/10 08:50:48;;;;;;;7.83;2.73;;;14.20;1.00;;;;;;5490630;26;20446;-71
2024/04/10 08:53:14;;;;;;;4.37;2.10;;;14.30;1.00;;;;;;5487762;26;20450;-70
2024/04/10 08:55:41;;;;;;;3.73;2.03;;;13.50;1.00;;;;;;5487893;26;20952;-70
2024/04/10 08:58:07;;;;;;;4.20;2.13;;;13.70;1.00;;;;;;5489794;26;20306;-70
2024/04/10 09:00:39;;;;;;;6.03;2.73;;;13.90;1.00;;;;;;5488008;26;20462;-70
2024/04/10 09:03:04;;;;;;;4.13;2.37;;;13.90;1.00;;;;;;5489313;26;20508;-70
2024/04/10 09:05:30;;;;;;;4.23;2.50;;;14.20;1.00;;;;;;5489627;26;20446;-70
2024/04/10 09:07:59;;;;;;;4.70;2.70;;;14.00;1.00;;;;;;5489769;26;20233;-71
2024/04/10 09:10:25;;;;;;;3.70;2.23;;;13.30;1.00;;;;;;5489786;26;20277;-71
2024/04/10 09:12:51;;;;;;;8.50;2.37;;;13.50;1.00;;;;;;5489404;26;20541;-70
2024/04/10 09:15:18;;;;;;;4.63;2.30;;;13.50;1.00;;;;;;5487694;26;21091;-69
2024/04/10 09:17:45;;;;;;;6.40;1.90;;;13.40;1.00;;;;;;5489735;26;20237;-70
2024/04/10 09:20:17;;;;;;;4.03;1.73;;;13.00;1.00;;;;;;5487665;26;20458;-71
2024/04/10 09:22:43;;;;;;;6.53;2.70;;;13.20;1.00;;;;;;5489218;26;20499;-70
2024/04/10 09:25:12;;;;;;;5.10;2.57;;;13.30;1.00;;;;;;5489960;26;20446;-71
2024/04/10 09:27:38;;;;;;;10.10;2.70;;;13.70;1.00;;;;;;5489484;26;20582;-71
2024/04/10 09:30:05;;;;;;;4.37;2.70;;;13.70;1.00;;;;;;5489575;26;20455;-71
2024/04/10 09:32:36;;;;;;;6.70;2.43;;;13.40;1.00;;;;;;5489469;26;20870;-71
2024/04/10 09:35:02;;;;;;;3.50;3.20;;;13.70;1.00;;;;;;5489721;26;20496;-71
2024/04/10 09:37:30;;;;;;;6.83;3.27;;;13.80;1.00;;;;;;5489653;26;20467;-71
2024/04/10 09:39:56;;;;;;;5.90;2.33;;;13.50;1.00;;;;;;5489614;26;20550;-71
2024/04/10 09:42:27;;;;;;;5.40;2.10;;;13.50;1.00;;;;;;5489526;26;20454;-70
2024/04/10 09:45:15;;;;;;;8.83;3.13;;;13.50;1.00;;;;;;5489812;26;20321;-70
2024/04/10 09:47:43;;;;;;;5.00;2.60;;;13.10;1.00;;;;;;5485995;26;20658;-70
2024/04/10 09:50:17;;;;;;;9.40;2.80;;;13.40;1.00;;;;;;5498186;26;20455;-70
2024/04/10 09:52:45;;;;;;;5.40;2.50;;;13.40;1.00;;;;;;5494921;26;20865;-70
2024/04/10 09:55:13;;;;;;;3.50;2.30;;;13.60;1.00;;;;;;5503933;26;20510;-70
2024/04/10 09:57:39;;;;;;;4.40;2.60;;;13.50;1.00;;;;;;5498202;26;20889;-71
2024/04/10 10:00:08;;;;;;;6.27;2.93;;;13.80;1.00;;;;;;5488575;26;20889;-71
2024/04/10 10:02:34;;;;;;;7.43;2.80;;;13.90;1.00;;;;;;5489757;26;20452;-70
2024/04/10 10:04:59;;;;;;;7.00;2.47;;;14.20;1.00;;;;;;5489331;26;20609;-70
2024/04/10 10:07:25;;;;;;;4.90;2.90;;;14.50;1.00;;;;;;5489109;26;21009;-70
2024/04/10 10:09:51;;;;;;;4.03;2.67;;;15.00;1.00;;;;;;5489486;26;20222;-70
2024/04/10 10:12:27;;;;;;;3.73;2.30;;;14.90;1.00;;;;;;5497293;26;20295;-70
2024/04/10 10:14:53;;;;;;;6.17;2.53;;;14.80;1.00;;;;;;5500535;26;20656;-71
2024/04/10 10:17:27;;;;;;;7.50;2.80;;;14.70;1.00;;;;;;5496673;26;20457;-71
2024/04/10 10:19:53;;;;;;;5.93;2.73;;;14.70;1.00;;;;;;5491244;26;20218;-71
2024/04/10 10:22:19;;;;;;;5.73;2.47;;;14.40;1.00;;;;;;5489286;26;21104;-71
2024/04/10 10:24:55;;;;;;;10.70;3.27;;;13.40;1.00;;;;;;5488325;26;20226;-71
2024/04/10 10:27:22;;;;;;;6.87;3.13;;;12.80;1.00;;;;;;5486939;26;20284;-71
2024/04/10 10:29:48;;;;;;;7.20;2.60;;;13.00;1.00;;;;;;5486874;26;20458;-69
2024/04/10 10:32:19;;;;;;;3.20;2.50;;;13.30;1.00;;;;;;5488525;26;20512;-69
2024/04/10 10:34:44;;;;;;;7.07;2.53;;;13.60;1.00;;;;;;5488770;26;20268;-70
2024/04/10 10:37:10;;;;;;;7.57;3.43;;;13.80;1.00;;;;;;5488997;26;20443;-69
2024/04/10 10:39:42;;;;;;;5.57;2.63;;;13.80;1.00;;;;;;5488668;26;20585;-70
2024/04/10 10:42:07;;;;;;;4.33;2.73;;;14.10;1.00;;;;;;5488691;26;20603;-71
2024/04/10 10:44:33;;;;;;;8.27;3.50;;;14.10;1.00;;;;;;5487954;26;20435;-70
2024/04/10 10:46:59;;;;;;;5.43;2.60;;;14.60;1.00;;;;;;5488261;26;20273;-70
2024/04/10 10:49:26;;;;;;;4.30;2.40;;;15.00;1.00;;;;;;5488579;26;20793;-70
2024/04/10 10:51:53;;;;;;;4.67;2.23;;;14.50;1.00;;;;;;5488777;26;20326;-71
2024/04/10 10:54:19;;;;;;;4.00;2.83;;;14.50;1.00;;;;;;5486253;26;20500;-71
2024/04/10 10:56:45;;;;;;;4.17;2.50;;;14.70;1.00;;;;;;5486193;26;20507;-70
2024/04/10 10:59:11;;;;;;;7.50;3.17;;;14.40;1.00;;;;;;5485318;26;20973;-70
2024/04/10 11:01:39;;;;;;;4.80;2.90;;;14.20;1.00;;;;;;5487655;26;20924;-71
2024/04/10 11:04:15;;;;;;;4.03;2.67;;;14.20;1.00;;;;;;5487370;26;20524;-70
2024/04/10 11:06:41;;;;;;;7.23;2.73;;;14.30;1.00;;;;;;5487911;26;20485;-69
2024/04/10 11:09:09;;;;;;;10.23;4.37;;;14.70;1.00;;;;;;5487240;26;20454;-69
2024/04/10 11:11:39;;;;;;;5.50;3.00;;;14.90;1.00;;;;;;5487827;26;20531;-70
2024/04/10 11:14:04;;;;;;;3.93;2.77;;;15.10;1.00;;;;;;5485139;26;20607;-73
2024/04/10 11:16:31;;;;;;;8.43;3.90;;;15.20;1.00;;;;;;5487845;26;20442;-71
2024/04/10 11:18:58;;;;;;;3.90;2.83;;;15.60;1.00;;;;;;5487939;26;20457;-71
2024/04/10 11:21:24;;;;;;;9.97;4.83;;;16.10;1.00;;;;;;5487404;26;20516;-71
2024/04/10 11:23:50;;;;;;;6.43;3.53;;;15.50;1.00;;;;;;5484733;26;20470;-71
2024/04/10 11:26:15;;;;;;;10.93;3.37;;;14.90;1.00;;;;;;5487424;26;20455;-71
2024/04/10 11:28:41;;;;;;;5.13;3.10;;;15.40;1.00;;;;;;5487088;26;20270;-71
2024/04/10 11:31:10;;;;;;;7.50;4.23;;;15.70;1.00;;;;;;5488590;26;20218;-71
2024/04/10 11:33:36;;;;;;;5.10;3.50;;;16.40;1.00;;;;;;5486597;26;20442;-71
2024/04/10 11:36:02;;;;;;;4.77;3.23;;;16.40;1.00;;;;;;5486711;26;20874;-70
2024/04/10 11:38:28;;;;;;;9.30;3.30;;;16.60;1.00;;;;;;5486576;26;20466;-71
2024/04/10 11:40:54;;;;;;;7.40;3.00;;;16.70;1.00;;;;;;5486705;26;20981;-71
2024/04/10 11:43:19;;;;;;;2.80;2.60;;;17.00;1.00;;;;;;5485958;26;20630;-70
2024/04/10 11:45:49;;;;;;;6.40;2.87;;;17.10;1.00;;;;;;5486481;26;20356;-71
2024/04/10 11:48:14;;;;;;;4.67;3.17;;;16.70;1.00;;;;;;5486463;26;20657;-70
2024/04/10 11:50:40;;;;;;;3.47;2.70;;;16.60;1.00;;;;;;5486849;26;20457;-70
2024/04/10 11:53:06;;;;;;;8.27;3.07;;;16.10;1.00;;;;;;5486281;26;20224;-70
2024/04/10 11:55:31;;;;;;;3.17;2.80;;;15.70;1.00;;;;;;5486690;26;20449;-70
2024/04/10 11:57:57;;;;;;;4.17;2.30;;;15.20;1.00;;;;;;5486694;26;20232;-70
2024/04/10 12:00:23;;;;;;;5.40;2.80;;;14.90;1.00;;;;;;5486224;26;20534;-70
2024/04/10 12:02:48;;;;;;;6.40;3.40;;;14.60;1.00;;;;;;5486028;26;20332;-70
2024/04/10 12:05:14;;;;;;;10.40;3.77;;;14.20;1.00;;;;;;5486069;26;20279;-70
2024/04/10 12:07:41;;;;;;;8.47;3.30;;;14.00;1.00;;;;;;5485974;26;20249;-71
2024/04/10 12:10:09;;;;;;;4.80;3.13;;;13.80;1.00;;;;;;5485305;26;20545;-70
2024/04/10 12:12:35;;;;;;;5.00;2.73;;;13.70;1.00;;;;;;5489217;26;20485;-70
2024/04/10 12:15:01;;;;;;;4.23;2.70;;;13.70;1.00;;;;;;5491988;26;20443;-70
2024/04/10 12:17:29;;;;;;;4.43;2.83;;;13.60;1.00;;;;;;5493931;26;20316;-70
2024/04/10 12:19:57;;;;;;;4.10;2.97;;;13.70;1.00;;;;;;5489818;26;20536;-70
2024/04/10 12:22:23;;;;;;;9.80;2.87;;;13.70;1.00;;;;;;5489364;26;20509;-70
2024/04/10 12:24:49;;;;;;;5.73;2.33;;;13.50;1.00;;;;;;5487446;26;20893;-70
2024/04/10 12:27:14;;;;;;;3.30;2.67;;;13.80;1.00;;;;;;5489291;26;20518;-71
2024/04/10 12:29:41;;;;;;;7.93;2.87;;;13.80;1.00;;;;;;5489151;26;20268;-71
2024/04/10 12:32:06;;;;;;;3.03;2.03;;;13.90;1.00;;;;;;5489103;26;20234;-71
2024/04/10 12:34:32;;;;;;;3.53;2.80;;;14.10;1.00;;;;;;5487067;26;20561;-71
2024/04/10 12:39:41;;;;;;;3.43;2.13;;;14.30;1.00;;;;;;5489310;26;20290;-71
2024/04/10 12:42:07;;;;;;;6.03;2.67;;;14.80;1.00;;;;;;5489337;26;20441;-71
2024/04/10 12:44:35;;;;;;;5.23;2.40;;;14.70;1.00;;;;;;5488775;26;20279;-71
2024/04/10 12:47:01;;;;;;;3.87;2.70;;;15.40;1.00;;;;;;5489169;26;20267;-71
2024/04/10 12:49:31;;;;;;;4.20;2.70;;;16.10;1.00;;;;;;5489412;26;21035;-71
2024/04/10 12:51:57;;;;;;;3.67;2.53;;;16.80;1.00;;;;;;5488920;26;20918;-71
2024/04/10 12:54:23;;;;;;;6.53;2.60;;;16.80;1.00;;;;;;5488808;26;20450;-71
2024/04/10 12:56:50;;;;;;;4.30;2.60;;;16.20;1.00;;;;;;5488885;26;20450;-71
2024/04/10 12:59:16;;;;;;;3.20;2.90;;;16.70;1.00;;;;;;5489148;26;20706;-71
2024/04/10 13:01:41;;;;;;;4.20;3.60;;;17.20;1.00;;;;;;5488832;26;20528;-71
2024/04/10 13:04:07;;;;;;;6.73;3.30;;;17.10;1.00;;;;;;5488961;26;20696;-71